Time;durP1;ratioP1;P1;durP2;ratioP2;P2;SDS_P1;SDS_P2;PMS_P1;PMS_P2;Temp;Humidity;BMP_temperature;BMP_pressure;BME280_temperature;BME280_humidity;BME280_pressure;Samples;Min_cycle;Max_cycle;Signal;HPM_P1;HPM_P2
2023/04/20 00:02:07;;;;;;;8.93;1.92;;;;;;;;;;4952300;28;93121;-80
2023/04/20 00:04:35;;;;;;;4.82;2.00;;;;;;;;;;4931920;28;92909;-80
2023/04/20 00:07:01;;;;;;;;;;;;;;;;;;4947285;28;93142;-80
2023/04/20 00:09:28;;;;;;;4.32;2.05;;;;;;;;;;4951479;28;92119;-80
2023/04/20 00:11:55;;;;;;;7.72;2.28;;;;;;;;;;4949544;28;92526;-83
2023/04/20 00:14:21;;;;;;;4.97;2.10;;;;;;;;;;4948339;28;93072;-84
2023/04/20 00:16:48;;;;;;;5.75;2.03;;;;;;;;;;4948696;28;95281;-83
2023/04/20 00:19:14;;;;;;;4.70;1.92;;;;;;;;;;4950369;28;95211;-82
2023/04/20 00:21:41;;;;;;;5.63;1.88;;;;;;;;;;4948982;28;93923;-82
2023/04/20 00:24:08;;;;;;;6.40;2.03;;;;;;;;;;4952371;28;92755;-81
2023/04/20 00:26:37;;;;;;;5.55;2.00;;;;;;;;;;4948785;28;94211;-82
2023/04/20 00:29:04;;;;;;;5.47;1.80;;;;;;;;;;4947437;28;92599;-82
2023/04/20 00:31:31;;;;;;;5.88;1.90;;;;;;;;;;4947669;28;94853;-83
2023/04/20 00:33:58;;;;;;;5.90;2.15;;;;;;;;;;4932294;28;94936;-83
2023/04/20 00:36:25;;;;;;;4.38;2.03;;;;;;;;;;4948334;28;92800;-82
2023/04/20 00:38:52;;;;;;;4.63;1.80;;;;;;;;;;4937485;28;94943;-80
2023/04/20 00:41:20;;;;;;;10.52;2.00;;;;;;;;;;4928878;28;98166;-82
2023/04/20 00:43:50;;;;;;;6.13;2.03;;;;;;;;;;4948464;28;93131;-83
2023/04/20 00:46:17;;;;;;;6.40;2.13;;;;;;;;;;4949220;28;93411;-82
2023/04/20 00:48:44;;;;;;;5.97;1.90;;;;;;;;;;4948965;28;92788;-81
2023/04/20 00:51:11;;;;;;;7.38;2.03;;;;;;;;;;4944053;28;95846;-81
2023/04/20 00:53:39;;;;;;;7.35;2.33;;;;;;;;;;4946768;28;95724;-80
2023/04/20 00:56:06;;;;;;;6.13;2.03;;;;;;;;;;4950837;28;93957;-80
2023/04/20 00:58:32;;;;;;;5.97;2.20;;;;;;;;;;4948787;28;97409;-80
2023/04/20 01:00:59;;;;;;;5.65;2.20;;;;;;;;;;4952071;28;93088;-80
2023/04/20 01:03:25;;;;;;;5.95;2.30;;;;;;;;;;4947518;28;92783;-80
2023/04/20 01:05:52;;;;;;;7.85;2.10;;;;;;;;;;4947459;28;94947;-80
2023/04/20 01:08:19;;;;;;;;;;;;;;;;;;4952019;28;95214;-81
2023/04/20 01:10:46;;;;;;;7.13;2.20;;;;;;;;;;4958572;28;102116;-82
2023/04/20 01:13:12;;;;;;;6.95;2.30;;;;;;;;;;4970941;28;92550;-81
2023/04/20 01:15:39;;;;;;;6.00;2.60;;;;;;;;;;4969227;28;92384;-81
2023/04/20 01:18:08;;;;;;;4.68;2.10;;;;;;;;;;4967422;28;92910;-81
2023/04/20 01:20:36;;;;;;;6.93;2.20;;;;;;;;;;4934682;28;99612;-81
2023/04/20 01:23:03;;;;;;;4.38;2.05;;;;;;;;;;4968889;28;91866;-80
2023/04/20 01:25:29;;;;;;;5.85;2.20;;;;;;;;;;4968097;28;92766;-81
2023/04/20 01:27:56;;;;;;;7.45;2.35;;;;;;;;;;4973922;28;92403;-81
2023/04/20 01:30:23;;;;;;;;;;;;;;;;;;4969517;28;94804;-81
2023/04/20 01:32:50;;;;;;;6.68;2.60;;;;;;;;;;4970473;28;92056;-81
2023/04/20 01:35:16;;;;;;;5.00;2.15;;;;;;;;;;4964331;28;92675;-81
2023/04/20 01:37:43;;;;;;;5.38;2.05;;;;;;;;;;4962528;28;92387;-81
2023/04/20 01:40:10;;;;;;;5.95;2.20;;;;;;;;;;4956545;28;93040;-80
2023/04/20 01:42:37;;;;;;;5.43;2.10;;;;;;;;;;4945416;28;92831;-82
2023/04/20 01:45:05;;;;;;;5.40;1.90;;;;;;;;;;4946204;28;95416;-81
2023/04/20 01:47:31;;;;;;;5.65;1.95;;;;;;;;;;4931156;28;93444;-81
2023/04/20 01:49:58;;;;;;;5.13;2.05;;;;;;;;;;4955010;28;92545;-82
2023/04/20 01:52:24;;;;;;;6.97;2.40;;;;;;;;;;4946183;28;93104;-80
2023/04/20 01:54:51;;;;;;;8.30;2.30;;;;;;;;;;4945396;28;94883;-81
2023/04/20 01:57:17;;;;;;;7.93;2.45;;;;;;;;;;4945743;28;98090;-80
2023/04/20 01:59:44;;;;;;;6.82;2.58;;;;;;;;;;4929081;28;95634;-79
2023/04/20 02:02:10;;;;;;;8.00;2.28;;;;;;;;;;4946514;28;92407;-80
2023/04/20 02:04:37;;;;;;;6.40;2.10;;;;;;;;;;4945348;28;96449;-80
2023/04/20 02:07:05;;;;;;;4.47;2.20;;;;;;;;;;4944933;28;94348;-80
2023/04/20 02:09:38;;;;;;;5.72;1.90;;;;;;;;;;4947101;28;92609;-80
2023/04/20 02:12:04;;;;;;;5.15;2.10;;;;;;;;;;4954093;28;92674;-80
2023/04/20 02:14:31;;;;;;;6.38;2.30;;;;;;;;;;4950052;28;92886;-80
2023/04/20 02:16:58;;;;;;;4.97;1.90;;;;;;;;;;4929902;28;94870;-80
2023/04/20 02:19:24;;;;;;;4.88;2.00;;;;;;;;;;4943243;28;95731;-80
2023/04/20 02:21:51;;;;;;;6.18;2.10;;;;;;;;;;4932260;28;92543;-80
2023/04/20 02:24:17;;;;;;;6.20;2.00;;;;;;;;;;4950303;28;92754;-80
2023/04/20 02:26:44;;;;;;;7.40;2.13;;;;;;;;;;4949020;28;93381;-80
2023/04/20 02:29:10;;;;;;;4.60;2.20;;;;;;;;;;4950798;28;92522;-82
2023/04/20 02:31:37;;;;;;;5.35;1.90;;;;;;;;;;4949399;28;95264;-82
2023/04/20 02:34:05;;;;;;;8.00;2.10;;;;;;;;;;4951713;28;94231;-82
2023/04/20 02:36:31;;;;;;;5.88;2.20;;;;;;;;;;4950756;28;93767;-81
2023/04/20 02:38:58;;;;;;;5.00;2.10;;;;;;;;;;4950722;28;93630;-80
2023/04/20 02:41:25;;;;;;;5.38;2.00;;;;;;;;;;4950159;28;92884;-81
2023/04/20 02:43:52;;;;;;;5.68;2.10;;;;;;;;;;4930538;28;95193;-81
2023/04/20 02:46:19;;;;;;;4.95;2.20;;;;;;;;;;4930813;28;95584;-81
2023/04/20 02:48:46;;;;;;;6.57;2.20;;;;;;;;;;4947517;28;93182;-81
2023/04/20 02:51:13;;;;;;;6.57;2.08;;;;;;;;;;4916427;28;95896;-81
2023/04/20 02:53:43;;;;;;;4.72;1.90;;;;;;;;;;4948379;28;96007;-81
2023/04/20 02:56:25;;;;;;;8.77;2.30;;;;;;;;;;4942725;28;92768;-79
2023/04/20 02:58:55;;;;;;;9.50;2.28;;;;;;;;;;4931690;28;94997;-80
2023/04/20 03:01:34;;;;;;;8.93;2.42;;;;;;;;;;4950356;28;92221;-81
2023/04/20 03:04:08;;;;;;;6.88;2.25;;;;;;;;;;4947573;28;95045;-79
2023/04/20 03:06:42;;;;;;;7.15;2.38;;;;;;;;;;4947737;28;95948;-80
2023/04/20 03:09:13;;;;;;;7.90;2.33;;;;;;;;;;4925241;28;95378;-80
2023/04/20 03:11:53;;;;;;;5.60;2.10;;;;;;;;;;4917463;28;97918;-80
2023/04/20 03:14:39;;;;;;;7.50;2.10;;;;;;;;;;4947487;28;99210;-80
2023/04/20 03:17:05;;;;;;;7.68;2.10;;;;;;;;;;4947760;28;92799;-80
2023/04/20 03:19:33;;;;;;;5.80;2.30;;;;;;;;;;4933580;28;95309;-80
2023/04/20 03:21:59;;;;;;;5.80;2.05;;;;;;;;;;4931334;28;92539;-81
2023/04/20 03:24:26;;;;;;;5.78;1.73;;;;;;;;;;4946821;28;95123;-81
2023/04/20 03:26:54;;;;;;;5.82;1.80;;;;;;;;;;4948906;28;95155;-80
2023/04/20 03:29:31;;;;;;;6.50;1.80;;;;;;;;;;4932720;28;92947;-80
2023/04/20 03:31:58;;;;;;;6.10;1.90;;;;;;;;;;4945720;28;95396;-80
2023/04/20 03:34:25;;;;;;;5.25;1.90;;;;;;;;;;4947767;28;95394;-80
2023/04/20 03:36:52;;;;;;;;;;;;;;;;;;4951101;28;92907;-80
2023/04/20 03:39:19;;;;;;;5.75;1.85;;;;;;;;;;4953812;28;114233;-80
2023/04/20 03:41:46;;;;;;;5.57;1.88;;;;;;;;;;4950304;28;92603;-80
2023/04/20 03:44:13;;;;;;;7.72;1.70;;;;;;;;;;4949841;28;94165;-79
2023/04/20 03:46:40;;;;;;;5.38;1.83;;;;;;;;;;4931168;28;96273;-80
2023/04/20 03:49:06;;;;;;;8.10;2.35;;;;;;;;;;4948487;28;93002;-80
2023/04/20 03:51:33;;;;;;;4.53;1.67;;;;;;;;;;4931996;28;96327;-80
2023/04/20 03:53:59;;;;;;;5.97;2.00;;;;;;;;;;4949510;28;93168;-80
2023/04/20 03:56:27;;;;;;;3.85;1.63;;;;;;;;;;4947877;28;92823;-80
2023/04/20 03:58:53;;;;;;;5.03;1.67;;;;;;;;;;4933137;28;95326;-80
2023/04/20 04:01:23;;;;;;;5.97;2.00;;;;;;;;;;4950625;28;94260;-80
2023/04/20 04:03:49;;;;;;;6.55;1.80;;;;;;;;;;4949516;28;92735;-80
2023/04/20 04:06:16;;;;;;;6.40;1.80;;;;;;;;;;4947021;28;94334;-79
2023/04/20 04:08:43;;;;;;;5.55;1.90;;;;;;;;;;4932150;28;92494;-79
2023/04/20 04:11:10;;;;;;;5.22;1.70;;;;;;;;;;4944061;28;95704;-80
2023/04/20 04:13:36;;;;;;;4.82;1.70;;;;;;;;;;4952350;28;94167;-80
2023/04/20 04:16:05;;;;;;;4.18;1.60;;;;;;;;;;4953950;28;91901;-79
2023/04/20 04:18:32;;;;;;;5.65;1.70;;;;;;;;;;4950586;28;93227;-79
2023/04/20 04:21:03;;;;;;;4.05;1.63;;;;;;;;;;4962473;28;95461;-79
2023/04/20 04:23:33;;;;;;;5.55;2.00;;;;;;;;;;4934550;28;95299;-79
2023/04/20 04:26:14;;;;;;;4.57;1.67;;;;;;;;;;4948677;28;95367;-77
2023/04/20 04:28:44;;;;;;;6.05;1.98;;;;;;;;;;4932608;28;92942;-78
2023/04/20 04:31:18;;;;;;;7.50;1.85;;;;;;;;;;4959596;28;95943;-79
2023/04/20 04:33:45;;;;;;;;;;;;;;;;;;4946709;28;95875;-81
2023/04/20 04:36:20;;;;;;;12.40;2.00;;;;;;;;;;4931360;28;94714;-81
2023/04/20 04:38:47;;;;;;;4.20;1.83;;;;;;;;;;4930148;28;96326;-81
2023/04/20 04:41:14;;;;;;;4.25;1.55;;;;;;;;;;4948536;28;93661;-81
2023/04/20 04:43:42;;;;;;;3.88;1.60;;;;;;;;;;4946563;28;92684;-79
2023/04/20 04:46:18;;;;;;;5.15;1.80;;;;;;;;;;4931171;28;95120;-79
2023/04/20 04:48:45;;;;;;;4.32;1.55;;;;;;;;;;4912399;28;95422;-79
2023/04/20 04:51:12;;;;;;;4.03;1.70;;;;;;;;;;4947798;28;95195;-79
2023/04/20 04:53:38;;;;;;;3.85;1.55;;;;;;;;;;4948614;28;95443;-82
2023/04/20 04:56:05;;;;;;;4.80;1.60;;;;;;;;;;4948157;28;92742;-79
2023/04/20 04:58:32;;;;;;;4.68;1.60;;;;;;;;;;4946667;28;93433;-78
2023/04/20 05:00:59;;;;;;;5.10;1.70;;;;;;;;;;4945026;28;94854;-78
2023/04/20 05:03:25;;;;;;;5.70;1.63;;;;;;;;;;4947970;28;92527;-79
2023/04/20 05:05:53;;;;;;;;;;;;;;;;;;4949194;28;92942;-79
2023/04/20 05:08:20;;;;;;;3.95;1.60;;;;;;;;;;4951773;28;94153;-78
2023/04/20 05:10:46;;;;;;;4.07;1.40;;;;;;;;;;4947208;28;92861;-78
2023/04/20 05:13:13;;;;;;;3.95;1.40;;;;;;;;;;4944819;28;98619;-80
2023/04/20 05:15:39;;;;;;;5.70;1.80;;;;;;;;;;4948760;28;92947;-79
2023/04/20 05:18:09;;;;;;;4.43;1.52;;;;;;;;;;4947913;28;92838;-79
2023/04/20 05:20:35;;;;;;;4.22;1.55;;;;;;;;;;4929873;28;93090;-79
2023/04/20 05:23:02;;;;;;;2.67;1.20;;;;;;;;;;4947637;28;92686;-79
2023/04/20 05:25:29;;;;;;;4.15;1.50;;;;;;;;;;4948181;28;93329;-79
2023/04/20 05:27:55;;;;;;;5.03;1.60;;;;;;;;;;4946945;28;94125;-78
2023/04/20 05:30:22;;;;;;;3.55;1.52;;;;;;;;;;4949111;28;91996;-79
2023/04/20 05:32:49;;;;;;;5.50;1.40;;;;;;;;;;4947410;28;92465;-79
2023/04/20 05:35:17;;;;;;;5.07;1.50;;;;;;;;;;4947507;28;92839;-80
2023/04/20 05:37:46;;;;;;;4.10;1.40;;;;;;;;;;4946107;28;95282;-79
2023/04/20 05:40:14;;;;;;;5.80;1.38;;;;;;;;;;4946914;28;93138;-80
2023/04/20 05:42:40;;;;;;;7.03;1.80;;;;;;;;;;4946335;28;92634;-79
2023/04/20 05:45:07;;;;;;;4.60;1.30;;;;;;;;;;4946396;28;92849;-80
2023/04/20 05:47:34;;;;;;;4.75;1.50;;;;;;;;;;4945978;28;94427;-79
2023/04/20 05:50:01;;;;;;;4.05;1.30;;;;;;;;;;4951202;28;92795;-80
2023/04/20 05:52:27;;;;;;;5.32;1.60;;;;;;;;;;4937453;28;93879;-80
2023/04/20 05:54:54;;;;;;;8.60;2.40;;;;;;;;;;4950386;28;91782;-80
2023/04/20 05:57:22;;;;;;;6.55;2.72;;;;;;;;;;4947554;28;92749;-80
2023/04/20 05:59:49;;;;;;;7.05;2.53;;;;;;;;;;4947494;28;93034;-79
2023/04/20 06:02:15;;;;;;;8.93;2.38;;;;;;;;;;4945202;28;95107;-81
2023/04/20 06:04:42;;;;;;;7.55;2.60;;;;;;;;;;4947376;28;95845;-79
2023/04/20 06:07:09;;;;;;;7.00;2.30;;;;;;;;;;4947081;28;94176;-80
2023/04/20 06:09:36;;;;;;;5.68;2.10;;;;;;;;;;4946986;28;92610;-80
2023/04/20 06:12:02;;;;;;;6.15;2.13;;;;;;;;;;4950316;28;93975;-80
2023/04/20 06:14:29;;;;;;;23.35;2.13;;;;;;;;;;4947068;28;92463;-80
2023/04/20 06:16:56;;;;;;;5.38;1.90;;;;;;;;;;4926104;28;95288;-80
2023/04/20 06:19:22;;;;;;;7.35;2.28;;;;;;;;;;4945858;28;92699;-80
2023/04/20 06:21:49;;;;;;;5.65;2.00;;;;;;;;;;4929669;28;92585;-79
2023/04/20 06:24:15;;;;;;;3.85;1.67;;;;;;;;;;4945844;28;93555;-79
2023/04/20 06:26:42;;;;;;;6.07;1.95;;;;;;;;;;4923575;28;97444;-81
2023/04/20 06:29:08;;;;;;;4.97;1.95;;;;;;;;;;4939729;28;93266;-79
2023/04/20 06:31:35;;;;;;;3.88;1.58;;;;;;;;;;4946708;28;93859;-80
2023/04/20 06:34:01;;;;;;;7.20;1.90;;;;;;;;;;4945595;28;93057;-80
2023/04/20 06:36:29;;;;;;;5.18;1.75;;;;;;;;;;4943984;28;94732;-79
2023/04/20 06:38:55;;;;;;;;;;;;;;;;;;4946829;28;93031;-79
2023/04/20 06:41:22;;;;;;;5.38;1.50;;;;;;;;;;4947222;28;92918;-79
2023/04/20 06:43:50;;;;;;;20.63;2.25;;;;;;;;;;4926175;28;95718;-79
2023/04/20 06:46:16;;;;;;;8.75;1.98;;;;;;;;;;4936530;28;93656;-79
2023/04/20 06:48:43;;;;;;;4.80;1.50;;;;;;;;;;4946578;28;93031;-80
2023/04/20 06:51:11;;;;;;;6.20;1.80;;;;;;;;;;4935744;28;95343;-80
2023/04/20 06:53:37;;;;;;;4.38;1.60;;;;;;;;;;4941647;28;92966;-80
2023/04/20 06:56:04;;;;;;;7.05;1.80;;;;;;;;;;4950166;28;92522;-79
2023/04/20 06:58:31;;;;;;;7.45;1.70;;;;;;;;;;4930680;28;92420;-80
2023/04/20 07:00:57;;;;;;;5.93;2.13;;;;;;;;;;4947758;28;96333;-80
2023/04/20 07:03:24;;;;;;;4.43;1.60;;;;;;;;;;4948131;28;95678;-82
2023/04/20 07:05:50;;;;;;;10.73;1.70;;;;;;;;;;4950363;28;95324;-78
2023/04/20 07:08:19;;;;;;;7.68;1.63;;;;;;;;;;4933267;28;92028;-77
2023/04/20 07:10:45;;;;;;;5.65;1.90;;;;;;;;;;4951485;28;92459;-77
2023/04/20 07:13:12;;;;;;;3.22;1.50;;;;;;;;;;4948249;28;95407;-77
2023/04/20 07:15:38;;;;;;;6.35;2.00;;;;;;;;;;4946739;28;95444;-77
2023/04/20 07:18:05;;;;;;;4.80;1.67;;;;;;;;;;4951940;28;95015;-78
2023/04/20 07:20:32;;;;;;;4.10;1.40;;;;;;;;;;4948118;28;93087;-78
2023/04/20 07:22:58;;;;;;;6.15;1.50;;;;;;;;;;4949167;28;94506;-79
2023/04/20 07:25:25;;;;;;;5.00;1.50;;;;;;;;;;4949824;28;93342;-77
2023/04/20 07:27:51;;;;;;;5.25;1.60;;;;;;;;;;4948503;28;92934;-77
2023/04/20 07:30:18;;;;;;;5.90;1.42;;;;;;;;;;4946260;28;93391;-76
2023/04/20 07:32:44;;;;;;;3.65;1.40;;;;;;;;;;4930963;28;95273;-77
2023/04/20 07:35:11;;;;;;;3.08;1.30;;;;;;;;;;4948335;28;92883;-77
2023/04/20 07:37:37;;;;;;;4.50;1.45;;;;;;;;;;4949381;28;93456;-77
2023/04/20 07:40:05;;;;;;;3.53;1.23;;;;;;;;;;4946717;28;95082;-78
2023/04/20 07:42:33;;;;;;;5.63;1.60;;;;;;;;;;4929307;28;98047;-78
2023/04/20 07:45:00;;;;;;;2.72;1.40;;;;;;;;;;4946509;28;95720;-78
2023/04/20 07:47:26;;;;;;;4.13;1.58;;;;;;;;;;4944731;28;92694;-78
2023/04/20 07:49:53;;;;;;;4.40;1.50;;;;;;;;;;4948415;28;93206;-78
2023/04/20 07:52:19;;;;;;;14.75;2.33;;;;;;;;;;4948015;28;92979;-78
2023/04/20 07:54:46;;;;;;;4.88;1.70;;;;;;;;;;4948558;28;93186;-78
2023/04/20 07:57:12;;;;;;;4.13;1.58;;;;;;;;;;4948409;28;93961;-80
2023/04/20 07:59:39;;;;;;;4.35;1.48;;;;;;;;;;4951378;28;92928;-78
2023/04/20 08:02:06;;;;;;;5.30;1.48;;;;;;;;;;4930336;28;95720;-79
2023/04/20 08:04:35;;;;;;;3.47;1.50;;;;;;;;;;4946638;28;100285;-80
2023/04/20 08:07:02;;;;;;;3.95;1.50;;;;;;;;;;4947493;28;92504;-81
2023/04/20 08:09:28;;;;;;;3.92;1.40;;;;;;;;;;4945860;28;93268;-80
2023/04/20 08:11:55;;;;;;;3.42;1.40;;;;;;;;;;4945455;28;93173;-79
2023/04/20 08:14:22;;;;;;;4.85;1.10;;;;;;;;;;4943899;28;92781;-80
2023/04/20 08:16:48;;;;;;;3.97;1.30;;;;;;;;;;4930385;28;93486;-78
2023/04/20 08:19:15;;;;;;;2.13;1.20;;;;;;;;;;4949772;28;93293;-78
2023/04/20 08:21:41;;;;;;;2.20;1.20;;;;;;;;;;4951546;28;92014;-78
2023/04/20 08:24:08;;;;;;;4.07;1.30;;;;;;;;;;4947827;28;92982;-76
2023/04/20 08:26:35;;;;;;;3.30;1.40;;;;;;;;;;4948493;28;92487;-77
2023/04/20 08:29:03;;;;;;;3.72;1.40;;;;;;;;;;4947145;28;95295;-78
2023/04/20 08:31:29;;;;;;;;;;;;;;;;;;4948539;28;93225;-78
2023/04/20 08:33:56;;;;;;;6.68;1.38;;;;;;;;;;4949499;28;101427;-78
2023/04/20 08:36:22;;;;;;;4.38;1.30;;;;;;;;;;4948067;28;100646;-79
2023/04/20 08:38:53;;;;;;;4.00;1.55;;;;;;;;;;4947856;28;94877;-79
2023/04/20 08:41:20;;;;;;;5.13;1.35;;;;;;;;;;4947965;28;92642;-79
2023/04/20 08:43:48;;;;;;;4.70;1.25;;;;;;;;;;4954741;28;93353;-78
2023/04/20 08:46:16;;;;;;;3.40;1.20;;;;;;;;;;4932355;28;92986;-78
2023/04/20 08:48:44;;;;;;;3.22;1.30;;;;;;;;;;4954692;28;92983;-77
2023/04/20 08:51:13;;;;;;;2.53;1.20;;;;;;;;;;4949579;28;93252;-78
2023/04/20 08:53:40;;;;;;;4.22;1.33;;;;;;;;;;4946799;28;94794;-78
2023/04/20 08:56:06;;;;;;;4.25;1.50;;;;;;;;;;4947973;28;96062;-77
2023/04/20 08:58:33;;;;;;;4.72;1.45;;;;;;;;;;4948671;28;94076;-77
2023/04/20 09:01:00;;;;;;;2.72;1.10;;;;;;;;;;4952543;28;92936;-77
2023/04/20 09:03:31;;;;;;;3.95;1.30;;;;;;;;;;4950660;28;93325;-78
2023/04/20 09:05:58;;;;;;;3.38;1.30;;;;;;;;;;4963023;28;92949;-78
2023/04/20 09:08:35;;;;;;;2.83;1.35;;;;;;;;;;4955106;28;92515;-77
2023/04/20 09:11:01;;;;;;;3.30;1.48;;;;;;;;;;4958452;28;95542;-77
2023/04/20 09:13:28;;;;;;;3.83;1.33;;;;;;;;;;4961120;28;92567;-78
2023/04/20 09:15:54;;;;;;;5.82;1.20;;;;;;;;;;4956965;28;92783;-78
2023/04/20 09:18:23;;;;;;;3.40;1.10;;;;;;;;;;4950345;28;94928;-78
2023/04/20 09:20:50;;;;;;;3.53;1.40;;;;;;;;;;4956526;28;92665;-78
2023/04/20 09:23:17;;;;;;;2.70;1.20;;;;;;;;;;4958562;28;92913;-79
2023/04/20 09:25:45;;;;;;;3.15;1.27;;;;;;;;;;4954206;28;92919;-77
2023/04/20 09:28:12;;;;;;;1.85;1.10;;;;;;;;;;4951476;28;92499;-77
2023/04/20 09:30:43;;;;;;;3.50;1.20;;;;;;;;;;4949147;28;93531;-77
2023/04/20 09:33:11;;;;;;;3.78;1.10;;;;;;;;;;4949978;28;92556;-77
2023/04/20 09:35:39;;;;;;;2.13;1.20;;;;;;;;;;4942902;28;93240;-78
2023/04/20 09:38:06;;;;;;;3.13;1.30;;;;;;;;;;4929106;28;93717;-77
2023/04/20 09:40:32;;;;;;;;;;;;;;;;;;4945811;28;92905;-80
2023/04/20 09:43:06;;;;;;;2.88;1.20;;;;;;;;;;4945759;28;95304;-77
2023/04/20 09:45:33;;;;;;;3.38;1.20;;;;;;;;;;4946948;28;93170;-77
2023/04/20 09:48:00;;;;;;;2.17;1.13;;;;;;;;;;4949584;28;92568;-77
2023/04/20 09:50:27;;;;;;;2.75;1.15;;;;;;;;;;4945202;28;92839;-77
2023/04/20 09:53:12;;;;;;;3.83;1.20;;;;;;;;;;4945321;28;92763;-77
2023/04/20 09:55:39;;;;;;;2.40;1.30;;;;;;;;;;4946664;28;92671;-77
2023/04/20 09:58:05;;;;;;;2.72;1.13;;;;;;;;;;4947579;28;93017;-78
2023/04/20 10:00:32;;;;;;;2.97;1.30;;;;;;;;;;4948502;28;92000;-77
2023/04/20 10:02:59;;;;;;;4.13;1.38;;;;;;;;;;4945153;28;92425;-79
2023/04/20 10:05:33;;;;;;;2.28;1.20;;;;;;;;;;4949498;28;93196;-78
2023/04/20 10:08:00;;;;;;;3.40;1.40;;;;;;;;;;4949186;28;95088;-79
2023/04/20 10:10:27;;;;;;;2.58;1.30;;;;;;;;;;4951868;28;95361;-79
2023/04/20 10:12:54;;;;;;;3.80;1.42;;;;;;;;;;4950412;28;92496;-79
2023/04/20 10:15:22;;;;;;;3.70;1.40;;;;;;;;;;4949163;28;93001;-79
2023/04/20 10:17:49;;;;;;;2.15;1.27;;;;;;;;;;4946351;28;93937;-77
2023/04/20 10:20:16;;;;;;;;;;;;;;;;;;4948024;28;92822;-78
2023/04/20 10:22:43;;;;;;;3.92;1.40;;;;;;;;;;4952681;28;112031;-79
2023/04/20 10:25:17;;;;;;;3.70;1.50;;;;;;;;;;4953604;28;92449;-80
2023/04/20 10:27:57;;;;;;;2.75;1.30;;;;;;;;;;4954096;28;92500;-78
2023/04/20 10:30:25;;;;;;;3.22;1.40;;;;;;;;;;4953378;28;93195;-78
2023/04/20 10:32:51;;;;;;;;;;;;;;;;;;4957146;28;94894;-79
2023/04/20 10:35:18;;;;;;;4.22;1.60;;;;;;;;;;4949341;28;94829;-79
2023/04/20 10:37:48;;;;;;;3.58;1.42;;;;;;;;;;4950815;28;93199;-78
2023/04/20 10:40:15;;;;;;;3.53;1.50;;;;;;;;;;4949695;28;92740;-79
2023/04/20 10:42:43;;;;;;;3.22;1.50;;;;;;;;;;4952014;28;93245;-78
2023/04/20 10:45:12;;;;;;;;;;;;;;;;;;4955563;28;93139;-79
2023/04/20 10:47:39;;;;;;;3.17;1.40;;;;;;;;;;4951994;28;101318;-79
2023/04/20 10:50:10;;;;;;;3.20;1.52;;;;;;;;;;4932805;28;92903;-78
2023/04/20 10:52:38;;;;;;;3.15;1.42;;;;;;;;;;4948467;28;97816;-79
2023/04/20 10:55:06;;;;;;;4.22;1.70;;;;;;;;;;4952796;28;92497;-79
2023/04/20 10:57:32;;;;;;;3.53;1.50;;;;;;;;;;4947326;28;95683;-80
2023/04/20 10:59:59;;;;;;;4.30;1.60;;;;;;;;;;4949637;28;92455;-79
2023/04/20 11:02:26;;;;;;;3.17;1.40;;;;;;;;;;4950321;28;92782;-81
2023/04/20 11:04:59;;;;;;;3.95;1.60;;;;;;;;;;4935058;28;92960;-79
2023/04/20 11:07:26;;;;;;;3.80;1.60;;;;;;;;;;4952910;28;92865;-80
2023/04/20 11:09:54;;;;;;;3.53;1.55;;;;;;;;;;4949798;28;94292;-79
2023/04/20 11:12:21;;;;;;;3.92;1.70;;;;;;;;;;4949250;28;93446;-79
2023/04/20 11:14:54;;;;;;;3.28;1.50;;;;;;;;;;4950931;28;91746;-78
2023/04/20 11:17:31;;;;;;;3.28;1.52;;;;;;;;;;4951975;28;94995;-79
2023/04/20 11:20:11;;;;;;;2.80;1.30;;;;;;;;;;4915611;28;92528;-79
2023/04/20 11:22:38;;;;;;;3.90;1.50;;;;;;;;;;4946323;28;97516;-79
2023/04/20 11:25:09;;;;;;;4.10;1.52;;;;;;;;;;4936087;28;93175;-79
2023/04/20 11:27:37;;;;;;;2.83;1.42;;;;;;;;;;4948705;28;92512;-78
2023/04/20 11:30:04;;;;;;;;;;;;;;;;;;4947997;28;95805;-79
2023/04/20 11:32:34;;;;;;;3.30;1.40;;;;;;;;;;4947378;28;111708;-79
2023/04/20 11:35:06;;;;;;;4.75;1.63;;;;;;;;;;4947634;28;92441;-79
2023/04/20 11:37:44;;;;;;;3.60;1.50;;;;;;;;;;4949235;28;92771;-79
2023/04/20 11:40:12;;;;;;;2.58;1.40;;;;;;;;;;4951162;28;92937;-79
2023/04/20 11:42:38;;;;;;;3.83;1.50;;;;;;;;;;4947999;28;92896;-79
2023/04/20 11:45:05;;;;;;;3.05;1.52;;;;;;;;;;4948166;28;93214;-80
2023/04/20 11:47:32;;;;;;;4.18;1.70;;;;;;;;;;4945917;28;95439;-80
2023/04/20 11:49:58;;;;;;;3.85;1.48;;;;;;;;;;4948147;28;95240;-79
2023/04/20 11:52:26;;;;;;;3.42;1.60;;;;;;;;;;4934330;28;93506;-79
2023/04/20 11:54:52;;;;;;;2.70;1.35;;;;;;;;;;4940942;28;98673;-79
2023/04/20 11:57:22;;;;;;;2.92;1.50;;;;;;;;;;4954662;28;92856;-80
2023/04/20 11:59:49;;;;;;;5.15;1.60;;;;;;;;;;4924667;28;95815;-78
2023/04/20 12:02:15;;;;;;;3.05;1.50;;;;;;;;;;4930875;28;92979;-78
2023/04/20 12:04:42;;;;;;;3.50;1.48;;;;;;;;;;4948532;28;92473;-77
2023/04/20 12:07:09;;;;;;;2.67;1.42;;;;;;;;;;4948737;28;93461;-78
2023/04/20 12:09:37;;;;;;;4.38;1.63;;;;;;;;;;4947206;28;95835;-79
2023/04/20 12:12:04;;;;;;;5.22;1.40;;;;;;;;;;4945898;28;95497;-79
2023/04/20 12:14:33;;;;;;;4.55;1.60;;;;;;;;;;4947767;28;92628;-79
2023/04/20 12:17:00;;;;;;;3.08;1.60;;;;;;;;;;4947580;28;92907;-79
2023/04/20 12:19:27;;;;;;;3.38;1.60;;;;;;;;;;4947503;28;92873;-78
2023/04/20 12:21:53;;;;;;;3.85;1.40;;;;;;;;;;4949289;28;92607;-78
2023/04/20 12:24:20;;;;;;;4.28;1.65;;;;;;;;;;4947196;28;93180;-78
2023/04/20 12:26:46;;;;;;;8.52;1.80;;;;;;;;;;4947599;28;93214;-77
2023/04/20 12:29:13;;;;;;;22.70;2.08;;;;;;;;;;4949206;28;94324;-78
2023/04/20 12:31:39;;;;;;;7.65;2.17;;;;;;;;;;4947731;28;93100;-77
2023/04/20 12:34:06;;;;;;;8.13;1.80;;;;;;;;;;4929800;28;92999;-77
2023/04/20 12:36:33;;;;;;;8.77;1.60;;;;;;;;;;4945711;28;97162;-77
2023/04/20 12:39:00;;;;;;;14.55;2.15;;;;;;;;;;4947565;28;93805;-78
2023/04/20 12:41:27;;;;;;;5.38;1.73;;;;;;;;;;4948362;28;93193;-78
2023/04/20 12:43:54;;;;;;;5.38;1.52;;;;;;;;;;4933746;28;92816;-78
2023/04/20 12:46:20;;;;;;;5.53;1.55;;;;;;;;;;4946794;28;93008;-79
2023/04/20 12:48:47;;;;;;;7.53;1.63;;;;;;;;;;4949170;28;93118;-78
2023/04/20 12:51:14;;;;;;;5.05;1.30;;;;;;;;;;4930474;28;93065;-78
2023/04/20 12:53:40;;;;;;;4.32;1.40;;;;;;;;;;4946510;28;92573;-78
2023/04/20 12:56:07;;;;;;;5.97;1.50;;;;;;;;;;4947966;28;94315;-78
2023/04/20 12:58:34;;;;;;;3.60;1.30;;;;;;;;;;4948171;28;97935;-79
2023/04/20 13:01:00;;;;;;;4.38;1.38;;;;;;;;;;4945406;28;95374;-79
2023/04/20 13:03:27;;;;;;;5.20;1.50;;;;;;;;;;4948150;28;95840;-78
2023/04/20 13:05:54;;;;;;;5.72;1.40;;;;;;;;;;4950315;28;93185;-78
2023/04/20 13:08:20;;;;;;;3.88;1.30;;;;;;;;;;4947581;28;92642;-78
2023/04/20 13:10:47;;;;;;;6.07;1.90;;;;;;;;;;4947179;28;94596;-78
2023/04/20 13:13:14;;;;;;;5.47;1.73;;;;;;;;;;4948644;28;92578;-78
2023/04/20 13:15:40;;;;;;;4.40;1.20;;;;;;;;;;4946249;28;93326;-78
2023/04/20 13:18:08;;;;;;;4.07;1.40;;;;;;;;;;4954258;28;92453;-78
2023/04/20 13:20:36;;;;;;;4.60;1.33;;;;;;;;;;4955179;28;92556;-79
2023/04/20 13:23:03;;;;;;;2.88;1.40;;;;;;;;;;4943796;28;95661;-79
2023/04/20 13:25:33;;;;;;;6.47;1.45;;;;;;;;;;4945312;28;96728;-80
2023/04/20 13:28:01;;;;;;;10.20;1.52;;;;;;;;;;4953848;28;92954;-79
2023/04/20 13:30:28;;;;;;;4.45;1.30;;;;;;;;;;4946487;28;93480;-79
2023/04/20 13:32:55;;;;;;;4.30;1.40;;;;;;;;;;4952036;28;92498;-80
2023/04/20 13:35:22;;;;;;;5.10;1.38;;;;;;;;;;4947382;28;93089;-80
2023/04/20 13:37:49;;;;;;;3.78;1.45;;;;;;;;;;4943667;28;95464;-80
2023/04/20 13:40:16;;;;;;;6.15;1.45;;;;;;;;;;4942730;28;93654;-79
2023/04/20 13:42:42;;;;;;;4.47;1.52;;;;;;;;;;4945107;28;93311;-80
2023/04/20 13:45:09;;;;;;;3.75;1.20;;;;;;;;;;4943560;28;93083;-80
2023/04/20 13:47:36;;;;;;;3.70;1.40;;;;;;;;;;4946373;28;92450;-81
2023/04/20 13:50:04;;;;;;;3.78;1.30;;;;;;;;;;4951218;28;94975;-80
2023/04/20 13:52:33;;;;;;;4.22;1.58;;;;;;;;;;4946311;28;92589;-79
2023/04/20 13:54:59;;;;;;;6.32;1.40;;;;;;;;;;4944853;28;93055;-80
2023/04/20 13:57:26;;;;;;;11.07;1.60;;;;;;;;;;4947104;28;93148;-78
2023/04/20 13:59:52;;;;;;;5.22;1.40;;;;;;;;;;4947058;28;99224;-79
2023/04/20 14:02:19;;;;;;;11.57;1.50;;;;;;;;;;4946643;28;92741;-78
2023/04/20 14:04:46;;;;;;;7.15;1.60;;;;;;;;;;4942306;28;92476;-79
2023/04/20 14:07:13;;;;;;;3.63;1.33;;;;;;;;;;4951106;28;91864;-78
2023/04/20 14:09:40;;;;;;;3.38;1.50;;;;;;;;;;4953708;28;93212;-79
2023/04/20 14:12:06;;;;;;;4.25;1.70;;;;;;;;;;4932305;28;92653;-79
2023/04/20 14:14:33;;;;;;;5.00;1.77;;;;;;;;;;4948785;28;97572;-80
2023/04/20 14:17:00;;;;;;;4.70;1.70;;;;;;;;;;4950421;28;93580;-79
2023/04/20 14:19:27;;;;;;;5.50;1.70;;;;;;;;;;4950008;28;99395;-80
2023/04/20 14:21:54;;;;;;;4.88;1.75;;;;;;;;;;4948151;28;92701;-79
2023/04/20 14:24:20;;;;;;;5.20;1.80;;;;;;;;;;4948733;28;93309;-80
2023/04/20 14:26:49;;;;;;;2.90;1.50;;;;;;;;;;4949198;28;93308;-80
2023/04/20 14:29:16;;;;;;;5.32;1.60;;;;;;;;;;4930181;28;98650;-80
2023/04/20 14:31:42;;;;;;;3.22;1.55;;;;;;;;;;4948464;28;98448;-80
2023/04/20 14:34:11;;;;;;;4.25;1.70;;;;;;;;;;4944708;28;98694;-79
2023/04/20 14:36:37;;;;;;;3.70;1.55;;;;;;;;;;4943809;28;100491;-80
2023/04/20 14:39:04;;;;;;;3.78;1.60;;;;;;;;;;4944140;28;99907;-80
2023/04/20 14:41:32;;;;;;;4.97;1.48;;;;;;;;;;4945543;28;99491;-80
2023/04/20 14:43:59;;;;;;;4.20;1.40;;;;;;;;;;4944146;28;99216;-80
2023/04/20 14:46:25;;;;;;;3.47;1.60;;;;;;;;;;4943720;28;99053;-79
2023/04/20 14:48:52;;;;;;;3.45;1.30;;;;;;;;;;4944816;28;98894;-78